createdAt,value
2017-09-12T00:00:51.167Z,2.73
2017-09-12T00:03:20.798Z,1.93
2017-09-12T00:05:48.833Z,2.20
2017-09-12T00:08:19.387Z,2.07
2017-09-12T00:10:48.544Z,2.43
2017-09-12T00:13:18.023Z,2.10
2017-09-12T00:15:46.167Z,2.43
2017-09-12T00:18:14.447Z,2.27
2017-09-12T00:20:44.675Z,3.43
2017-09-12T00:23:14.134Z,2.80
2017-09-12T00:25:44.131Z,2.70
2017-09-12T00:28:14.649Z,2.20
2017-09-12T00:30:42.201Z,2.30
2017-09-12T00:33:11.085Z,2.30
2017-09-12T00:35:39.930Z,2.50
2017-09-12T00:38:08.920Z,1.63
2017-09-12T00:40:38.351Z,2.00
2017-09-12T00:43:08.137Z,1.60
2017-09-12T00:45:37.214Z,2.63
2017-09-12T00:48:06.734Z,3.00
2017-09-12T01:03:29.791Z,1.70
2017-09-12T01:05:58.378Z,11.57
2017-09-12T01:08:27.547Z,1.93
2017-09-12T01:10:56.610Z,4.80
2017-09-12T01:13:26.524Z,2.30
2017-09-12T01:15:56.105Z,1.83
2017-09-12T01:18:26.477Z,1.50
2017-09-12T01:20:56.268Z,1.73
2017-09-12T01:23:25.760Z,2.03
2017-09-12T01:25:54.498Z,1.90
2017-09-12T01:28:23.462Z,2.50
2017-09-12T01:30:52.884Z,1.70
2017-09-12T01:33:21.979Z,2.27
2017-09-12T01:35:50.298Z,3.40
2017-09-12T01:38:18.835Z,1.80
2017-09-12T01:40:47.431Z,2.20
2017-09-12T01:43:16.296Z,9.40
2017-09-12T01:45:45.060Z,3.47
2017-09-12T01:48:14.810Z,1.93
2017-09-12T01:50:44.073Z,1.63
2017-09-12T01:53:12.376Z,2.00
2017-09-12T01:55:40.954Z,2.83
2017-09-12T01:58:10.000Z,1.37
2017-09-12T02:00:38.300Z,1.90
2017-09-12T02:03:06.298Z,3.10
2017-09-12T02:05:35.156Z,3.10
2017-09-12T02:08:05.382Z,1.97
2017-09-12T02:10:34.404Z,2.40
2017-09-12T02:13:03.585Z,3.70
2017-09-12T02:15:33.668Z,1.70
2017-09-12T02:18:02.348Z,4.67
2017-09-12T02:20:32.606Z,2.50
2017-09-12T02:23:02.415Z,1.97
2017-09-12T02:25:30.504Z,1.57
2017-09-12T02:27:59.789Z,2.30
2017-09-12T02:30:29.165Z,2.33
2017-09-12T02:32:58.101Z,3.23
2017-09-12T02:35:26.733Z,2.73
2017-09-12T02:37:56.092Z,2.50
2017-09-12T02:40:25.178Z,5.03
2017-09-12T02:42:53.340Z,1.83
2017-09-12T02:45:22.579Z,2.20
2017-09-12T02:47:50.627Z,2.40
2017-09-12T02:50:19.173Z,1.93
2017-09-12T02:52:49.545Z,1.73
2017-09-12T02:55:18.892Z,2.17
2017-09-12T02:57:47.534Z,2.03
2017-09-12T03:00:16.673Z,2.80
2017-09-12T03:02:45.473Z,3.83
2017-09-12T03:05:15.320Z,3.60
2017-09-12T03:07:44.176Z,1.90
2017-09-12T03:10:12.342Z,2.77
2017-09-12T03:12:41.437Z,4.47
2017-09-12T03:15:09.527Z,1.97
2017-09-12T03:17:38.370Z,1.97
2017-09-12T03:20:08.788Z,1.80
2017-09-12T03:22:38.383Z,4.00
2017-09-12T03:25:10.249Z,2.87
2017-09-12T03:27:38.352Z,2.00
2017-09-12T03:30:08.113Z,3.00
2017-09-12T03:32:37.012Z,3.70
2017-09-12T03:35:06.457Z,1.93
2017-09-12T03:37:35.188Z,2.00
2017-09-12T03:40:04.570Z,4.90
2017-09-12T03:42:34.171Z,1.73
2017-09-12T03:45:03.132Z,3.07
2017-09-12T03:47:32.813Z,2.60
2017-09-12T03:50:01.174Z,4.80
2017-09-12T03:52:31.886Z,2.00
2017-09-12T03:55:01.385Z,3.90
2017-09-12T03:57:30.470Z,2.30
2017-09-12T03:59:58.497Z,4.20
2017-09-12T04:02:27.901Z,5.40
2017-09-12T04:04:57.320Z,6.40
2017-09-12T04:07:26.390Z,3.87
2017-09-12T04:09:57.569Z,5.53
2017-09-12T04:12:25.998Z,4.07
2017-09-12T04:14:56.316Z,3.17
2017-09-12T04:17:25.884Z,5.97
2017-09-12T04:19:54.831Z,2.20
2017-09-12T04:22:24.609Z,3.83
2017-09-12T04:24:53.479Z,3.10
2017-09-12T04:27:21.013Z,2.70
2017-09-12T04:29:50.306Z,2.70
2017-09-12T04:32:18.279Z,5.27
2017-09-12T04:34:47.287Z,4.47
2017-09-12T04:37:17.020Z,3.07
2017-09-12T04:39:45.583Z,5.10
2017-09-12T04:42:14.364Z,4.37
2017-09-12T04:44:43.057Z,1.93
2017-09-12T04:47:11.651Z,2.97
2017-09-12T04:49:39.798Z,4.50
2017-09-12T04:52:09.681Z,2.30
2017-09-12T04:54:38.535Z,4.40
2017-09-12T04:57:07.319Z,3.87
2017-09-12T04:59:37.349Z,4.07
2017-09-12T05:02:06.369Z,7.63
2017-09-12T05:04:35.836Z,2.13
2017-09-12T05:07:04.324Z,2.73
2017-09-12T05:09:33.180Z,2.10
2017-09-12T05:12:02.708Z,3.67
2017-09-12T05:14:31.370Z,6.20
2017-09-12T05:17:00.038Z,3.07
2017-09-12T05:19:31.000Z,3.13
2017-09-12T05:22:00.269Z,5.87
2017-09-12T05:24:32.231Z,4.43
2017-09-12T05:27:02.686Z,2.77
2017-09-12T05:29:30.831Z,3.63
2017-09-12T05:31:59.099Z,3.83
2017-09-12T05:34:28.465Z,3.80
2017-09-12T05:36:56.580Z,3.40
2017-09-12T05:39:26.590Z,2.20
2017-09-12T05:41:55.461Z,2.70
2017-09-12T05:44:24.777Z,4.60
2017-09-12T05:46:54.145Z,2.27
2017-09-12T05:49:24.247Z,3.53
2017-09-12T05:51:53.619Z,6.60
2017-09-12T05:54:27.728Z,5.37
2017-09-12T05:56:57.821Z,6.73
2017-09-12T05:59:26.389Z,6.37
2017-09-12T06:01:54.942Z,3.67
2017-09-12T06:04:24.010Z,2.63
2017-09-12T06:06:53.350Z,4.20
2017-09-12T06:09:21.451Z,2.77
2017-09-12T06:24:44.619Z,3.20
2017-09-12T06:27:12.752Z,6.00
2017-09-12T06:29:41.658Z,5.43
2017-09-12T06:32:09.807Z,3.43
2017-09-12T06:34:39.098Z,4.17
2017-09-12T06:37:07.379Z,12.03
2017-09-12T06:39:36.318Z,6.13
2017-09-12T06:42:05.359Z,2.10
2017-09-12T06:44:34.626Z,5.90
2017-09-12T06:47:04.061Z,4.67
2017-09-12T06:49:32.637Z,3.80
2017-09-12T06:52:01.817Z,3.93
2017-09-12T06:54:32.787Z,5.33
2017-09-12T06:57:02.078Z,4.73
2017-09-12T06:59:31.441Z,8.33
2017-09-12T07:02:00.722Z,5.00
2017-09-12T07:04:29.513Z,7.83
2017-09-12T07:06:59.226Z,6.17
2017-09-12T07:09:28.898Z,4.63
2017-09-12T07:11:57.066Z,5.57
2017-09-12T07:14:26.367Z,2.67
2017-09-12T07:16:56.151Z,3.47
2017-09-12T07:19:25.132Z,4.83
2017-09-12T07:21:54.140Z,2.30
2017-09-12T07:24:23.083Z,9.80
2017-09-12T07:26:54.483Z,3.07
2017-09-12T07:29:23.324Z,5.43
2017-09-12T07:31:51.979Z,4.03
2017-09-12T07:34:21.973Z,5.97
2017-09-12T07:36:51.110Z,3.30
2017-09-12T07:39:20.174Z,2.50
2017-09-12T07:41:49.096Z,6.37
2017-09-12T07:44:17.937Z,4.10
2017-09-12T07:46:48.684Z,2.57
2017-09-12T07:49:18.063Z,2.20
2017-09-12T07:51:46.362Z,5.93
2017-09-12T07:54:15.999Z,5.93
2017-09-12T07:56:44.218Z,5.20
2017-09-12T07:59:12.571Z,11.57
2017-09-12T08:01:41.240Z,8.17
2017-09-12T08:04:10.839Z,6.10
2017-09-12T08:06:41.405Z,2.87
2017-09-12T08:09:10.894Z,6.53
2017-09-12T08:11:39.772Z,6.37
2017-09-12T08:14:08.302Z,6.17
2017-09-12T08:16:36.609Z,8.70
2017-09-12T08:19:05.007Z,10.03
2017-09-12T08:21:33.165Z,5.57
2017-09-12T08:24:02.627Z,7.13
2017-09-12T08:26:31.679Z,9.37
2017-09-12T08:28:59.677Z,6.53
2017-09-12T08:31:29.813Z,2.97
2017-09-12T08:33:58.920Z,7.03
2017-09-12T08:36:27.840Z,4.20
2017-09-12T08:38:59.078Z,8.23
2017-09-12T08:41:27.384Z,4.17
2017-09-12T08:43:56.388Z,7.07
2017-09-12T08:46:26.175Z,8.17
2017-09-12T08:48:55.410Z,6.37
2017-09-12T08:51:24.486Z,7.13
2017-09-12T08:53:53.748Z,5.10
2017-09-12T08:56:24.172Z,4.70
2017-09-12T08:58:54.320Z,3.73
2017-09-12T09:01:22.335Z,6.80
2017-09-12T09:03:52.317Z,10.60
2017-09-12T09:06:20.562Z,5.80
2017-09-12T09:08:49.144Z,6.33
2017-09-12T09:11:18.158Z,4.90
2017-09-12T09:13:47.059Z,6.13
2017-09-12T09:16:15.828Z,4.53
2017-09-12T09:18:44.741Z,7.13
2017-09-12T09:21:13.439Z,6.63
2017-09-12T09:23:42.344Z,9.50
2017-09-12T09:26:11.311Z,5.10
2017-09-12T09:28:39.469Z,3.97
2017-09-12T09:31:08.922Z,9.37
2017-09-12T09:33:37.889Z,7.53
2017-09-12T09:36:06.733Z,13.00
2017-09-12T09:38:37.410Z,5.67
2017-09-12T09:41:07.382Z,5.13
2017-09-12T09:43:36.434Z,9.80
2017-09-12T09:46:06.262Z,9.20
2017-09-12T09:48:35.437Z,7.20
2017-09-12T09:51:03.498Z,7.60
2017-09-12T09:53:32.957Z,8.13
2017-09-12T09:56:01.070Z,11.50
2017-09-12T09:58:29.531Z,4.67
2017-09-12T10:00:58.660Z,7.80
2017-09-12T10:03:26.656Z,11.03
2017-09-12T10:05:56.445Z,11.70
2017-09-12T10:08:25.327Z,9.23
2017-09-12T10:10:54.152Z,5.83
2017-09-12T10:13:23.222Z,4.40
2017-09-12T10:15:52.228Z,4.83
2017-09-12T10:18:23.652Z,8.77
2017-09-12T10:20:51.837Z,8.27
2017-09-12T10:23:20.115Z,11.13
2017-09-12T10:25:50.350Z,7.30
2017-09-12T10:28:18.616Z,6.10
2017-09-12T10:30:47.615Z,8.63
2017-09-12T10:33:17.101Z,9.83
2017-09-12T10:35:44.626Z,7.10
2017-09-12T10:38:14.248Z,8.03
2017-09-12T10:40:44.536Z,7.83
2017-09-12T10:43:12.552Z,6.67
2017-09-12T10:45:40.704Z,11.80
2017-09-12T10:48:09.498Z,7.27
2017-09-12T10:50:39.665Z,25.50
2017-09-12T10:53:08.593Z,14.07
2017-09-12T10:55:36.774Z,13.90
2017-09-12T10:58:06.522Z,11.77
2017-09-12T11:00:35.526Z,11.67
2017-09-12T11:03:06.765Z,15.40
2017-09-12T11:05:34.889Z,7.40
2017-09-12T11:08:04.413Z,5.90
2017-09-12T11:10:33.333Z,8.90
2017-09-12T11:13:02.535Z,9.73
2017-09-12T11:15:31.990Z,10.33
2017-09-12T11:18:00.225Z,11.03
2017-09-12T11:20:28.244Z,7.57
2017-09-12T11:22:57.792Z,8.80
2017-09-12T11:25:25.917Z,10.77
2017-09-12T11:27:55.024Z,18.00
2017-09-12T11:30:26.717Z,5.93
2017-09-12T11:32:55.602Z,9.10
2017-09-12T11:35:24.089Z,8.93
2017-09-12T11:37:52.192Z,8.17
2017-09-12T11:40:19.769Z,7.13
2017-09-12T11:42:53.036Z,7.77
2017-09-12T11:45:22.542Z,9.10
2017-09-12T11:47:53.212Z,7.50
2017-09-12T11:50:21.523Z,7.97
2017-09-12T11:52:50.937Z,15.23
2017-09-12T11:55:21.260Z,12.10
2017-09-12T11:57:51.713Z,7.80
2017-09-12T12:00:21.014Z,8.80
2017-09-12T12:02:49.249Z,8.00
2017-09-12T12:05:18.248Z,8.90
2017-09-12T12:07:46.520Z,10.13
2017-09-12T12:10:14.640Z,10.87
2017-09-12T12:12:44.004Z,9.40
2017-09-12T12:15:13.474Z,7.80
2017-09-12T12:17:44.958Z,7.40
2017-09-12T12:20:13.217Z,6.80
2017-09-12T12:22:42.303Z,9.10
2017-09-12T12:25:10.995Z,14.27
2017-09-12T12:27:39.126Z,11.87
2017-09-12T12:30:08.468Z,11.40
2017-09-12T12:32:38.774Z,8.07
2017-09-12T12:35:09.126Z,9.23
2017-09-12T12:37:37.370Z,13.10
2017-09-12T12:40:12.083Z,14.93
2017-09-12T12:42:41.419Z,8.03
2017-09-12T12:45:10.860Z,18.20
2017-09-12T12:47:39.875Z,9.20
2017-09-12T12:50:07.680Z,6.03
2017-09-12T12:52:37.100Z,13.43
2017-09-12T12:55:05.760Z,16.63
2017-09-12T12:57:34.824Z,7.90
2017-09-12T13:00:05.568Z,6.43
2017-09-12T13:02:37.238Z,16.47
2017-09-12T13:05:06.467Z,6.60
2017-09-12T13:07:35.980Z,12.60
2017-09-12T13:10:05.909Z,12.10
2017-09-12T13:12:34.823Z,12.80
2017-09-12T13:15:03.748Z,7.57
2017-09-12T13:17:34.464Z,10.70
2017-09-12T13:20:04.864Z,11.53
2017-09-12T13:22:33.748Z,11.97
2017-09-12T13:25:02.011Z,9.83
2017-09-12T13:27:30.416Z,5.10
2017-09-12T13:29:58.477Z,8.87
2017-09-12T13:32:26.686Z,17.63
2017-09-12T13:34:55.982Z,10.73
2017-09-12T13:37:25.603Z,10.07
2017-09-12T13:39:53.721Z,12.60
2017-09-12T13:42:23.738Z,9.23
2017-09-12T13:44:52.076Z,4.50
2017-09-12T13:47:21.730Z,13.33
2017-09-12T13:49:52.315Z,7.60
2017-09-12T13:52:21.500Z,9.20
2017-09-12T13:54:51.522Z,4.90
2017-09-12T13:57:19.671Z,8.93
2017-09-12T13:59:47.687Z,5.60
2017-09-12T14:02:16.584Z,10.20
2017-09-12T14:04:46.324Z,6.53
2017-09-12T14:07:14.600Z,4.80
2017-09-12T14:09:44.079Z,5.83
2017-09-12T14:12:14.632Z,5.80
2017-09-12T14:14:43.499Z,8.10
2017-09-12T14:17:14.811Z,9.20
2017-09-12T14:19:44.443Z,6.63
2017-09-12T14:22:13.778Z,7.20
2017-09-12T14:24:43.174Z,6.33
2017-09-12T14:27:11.367Z,4.83
2017-09-12T14:29:40.768Z,9.30
2017-09-12T14:32:10.281Z,2.97
2017-09-12T14:34:39.549Z,4.80
2017-09-12T14:37:08.984Z,5.90
2017-09-12T14:39:38.817Z,4.70
2017-09-12T14:42:08.499Z,8.57
2017-09-12T14:44:38.046Z,10.43
2017-09-12T14:47:06.288Z,7.77
2017-09-12T14:49:36.558Z,6.30
2017-09-12T14:52:05.482Z,5.20
2017-09-12T14:54:33.814Z,6.10
2017-09-12T14:57:03.334Z,7.80
2017-09-12T14:59:31.645Z,12.90
2017-09-12T15:01:59.867Z,9.37
2017-09-12T15:04:28.096Z,9.33
2017-09-12T15:06:56.949Z,7.43
2017-09-12T15:09:26.500Z,6.23
2017-09-12T15:11:56.062Z,4.60
2017-09-12T15:14:26.128Z,6.77
2017-09-12T15:16:55.206Z,8.80
2017-09-12T15:19:24.506Z,8.30
2017-09-12T15:21:53.984Z,9.27
2017-09-12T15:24:23.833Z,10.27
2017-09-12T15:26:54.258Z,7.30
2017-09-12T15:29:22.948Z,9.00
2017-09-12T15:31:51.108Z,11.73
2017-09-12T15:34:20.712Z,5.77
2017-09-12T15:36:51.777Z,11.50
2017-09-12T15:39:21.743Z,9.47
2017-09-12T15:41:50.466Z,9.13
2017-09-12T15:44:19.788Z,6.77
2017-09-12T15:46:50.202Z,7.23
2017-09-12T15:49:20.542Z,5.37
2017-09-12T15:51:50.546Z,14.50
2017-09-12T15:54:19.171Z,6.73
2017-09-12T15:56:47.851Z,9.60
2017-09-12T15:59:17.730Z,9.37
2017-09-12T16:01:47.990Z,5.60
2017-09-12T16:04:17.021Z,9.40
2017-09-12T16:06:46.348Z,7.70
2017-09-12T16:09:16.056Z,18.90
2017-09-12T16:11:45.476Z,8.50
2017-09-12T16:14:16.031Z,8.30
2017-09-12T16:16:44.905Z,6.40
2017-09-12T16:19:14.015Z,4.33
2017-09-12T16:21:43.309Z,5.10
2017-09-12T16:24:13.272Z,8.30
2017-09-12T16:26:41.757Z,7.27
2017-09-12T16:29:11.177Z,2.47
2017-09-12T16:31:40.380Z,2.43
2017-09-12T16:34:10.194Z,3.63
2017-09-12T16:36:39.690Z,2.23
2017-09-12T16:39:09.300Z,1.90
2017-09-12T16:41:37.773Z,4.83
2017-09-12T16:44:05.964Z,6.60
2017-09-12T16:46:34.823Z,3.70
2017-09-12T16:49:03.010Z,4.80
2017-09-12T16:51:31.103Z,2.63
2017-09-12T16:53:59.143Z,7.03
2017-09-12T16:56:29.493Z,3.47
2017-09-12T16:58:58.791Z,4.70
2017-09-12T17:01:28.197Z,6.43
2017-09-12T17:03:57.356Z,7.43
2017-09-12T17:06:27.393Z,3.57
2017-09-12T17:08:56.514Z,7.67
2017-09-12T17:11:25.931Z,9.03
2017-09-12T17:13:54.702Z,7.43
2017-09-12T17:16:24.237Z,5.20
2017-09-12T17:18:52.290Z,6.10
2017-09-12T17:21:21.096Z,2.80
2017-09-12T17:23:50.053Z,2.93
2017-09-12T17:26:19.719Z,2.37
2017-09-12T17:28:48.008Z,3.97
2017-09-12T17:31:19.146Z,3.77
2017-09-12T17:33:47.358Z,4.10
2017-09-12T17:36:18.142Z,4.00
2017-09-12T17:38:46.932Z,2.23
2017-09-12T17:41:17.001Z,2.20
2017-09-12T17:43:45.567Z,2.50
2017-09-12T17:46:15.498Z,3.10
2017-09-12T17:48:44.110Z,5.17
2017-09-12T17:51:15.598Z,1.80
2017-09-12T17:53:45.186Z,1.97
2017-09-12T17:56:14.821Z,2.80
2017-09-12T17:58:43.770Z,2.50
2017-09-12T18:01:13.529Z,3.23
2017-09-12T18:03:42.327Z,3.23
2017-09-12T18:06:10.861Z,1.93
2017-09-12T18:08:41.030Z,4.93
2017-09-12T18:11:10.814Z,2.93
2017-09-12T18:13:38.968Z,2.20
2017-09-12T18:16:07.975Z,3.90
2017-09-12T18:18:35.477Z,1.77
2017-09-12T18:21:06.070Z,3.47
2017-09-12T18:23:34.055Z,7.07
2017-09-12T18:26:04.839Z,2.47
2017-09-12T18:28:33.199Z,1.70
2017-09-12T18:31:00.692Z,3.40
2017-09-12T18:33:32.838Z,3.37
2017-09-12T18:36:01.614Z,1.80
2017-09-12T18:38:31.098Z,3.17
2017-09-12T18:41:01.146Z,3.13
2017-09-12T18:43:29.986Z,1.97
2017-09-12T18:45:59.438Z,1.57
2017-09-12T18:48:28.749Z,1.63
2017-09-12T18:50:57.835Z,1.77
2017-09-12T18:53:26.521Z,2.50
2017-09-12T18:55:55.917Z,2.80
2017-09-12T18:58:25.950Z,2.57
2017-09-12T19:00:55.033Z,1.70
2017-09-12T19:03:24.368Z,3.40
2017-09-12T19:05:53.211Z,2.20
2017-09-12T19:08:23.107Z,5.60
2017-09-12T19:10:52.174Z,1.43
2017-09-12T19:13:21.649Z,2.83
2017-09-12T19:15:55.487Z,2.10
2017-09-12T19:18:24.389Z,1.90
2017-09-12T19:20:53.478Z,5.53
2017-09-12T19:23:23.241Z,3.23
2017-09-12T19:25:53.001Z,1.40
2017-09-12T19:28:23.290Z,3.73
2017-09-12T19:30:53.552Z,2.87
2017-09-12T19:33:21.811Z,1.00
2017-09-12T19:35:53.533Z,1.40
2017-09-12T19:38:24.118Z,1.47
2017-09-12T19:40:51.748Z,4.90
2017-09-12T19:43:20.581Z,1.57
2017-09-12T19:45:49.392Z,1.90
2017-09-12T19:48:18.380Z,1.57
2017-09-12T19:50:46.991Z,1.67
2017-09-12T19:53:15.694Z,3.27
2017-09-12T19:55:44.068Z,2.87
2017-09-12T19:58:14.559Z,3.93
2017-09-12T20:00:42.659Z,1.43
2017-09-12T20:03:12.401Z,2.93
2017-09-12T20:05:42.661Z,1.17
2017-09-12T20:08:10.859Z,2.60
2017-09-12T20:10:40.365Z,0.87
2017-09-12T20:13:09.059Z,1.90
2017-09-12T20:15:37.092Z,2.27
2017-09-12T20:18:06.839Z,2.10
2017-09-12T20:20:35.728Z,2.40
2017-09-12T20:23:04.140Z,3.53
2017-09-12T20:25:33.640Z,2.67
2017-09-12T20:28:03.230Z,4.73
2017-09-12T20:30:33.997Z,4.50
2017-09-12T20:33:03.530Z,4.10
2017-09-12T20:35:32.584Z,1.33
2017-09-12T20:38:00.945Z,1.10
2017-09-12T20:40:29.951Z,1.10
2017-09-12T20:42:57.969Z,0.73
2017-09-12T20:45:26.193Z,1.10
2017-09-12T20:47:55.217Z,2.93
2017-09-12T20:50:24.378Z,1.80
2017-09-12T20:52:52.907Z,1.70
2017-09-12T20:55:23.784Z,4.20
2017-09-12T20:57:53.927Z,2.27
2017-09-12T21:00:23.624Z,2.27
2017-09-12T21:02:52.465Z,1.33
2017-09-12T21:05:22.514Z,1.50
2017-09-12T21:07:51.990Z,3.00
2017-09-12T21:10:20.903Z,1.50
2017-09-12T21:12:49.355Z,1.13
2017-09-12T21:15:19.210Z,1.93
2017-09-12T21:17:47.657Z,1.47
2017-09-12T21:20:17.381Z,2.40
2017-09-12T21:22:47.414Z,1.30
2017-09-12T21:25:15.529Z,2.00
2017-09-12T21:27:44.145Z,3.87
2017-09-12T21:30:15.077Z,2.97
2017-09-12T21:32:44.145Z,3.80
2017-09-12T21:48:07.384Z,2.00
2017-09-12T21:50:37.453Z,4.00
2017-09-12T21:53:06.481Z,2.60
2017-09-12T21:55:35.013Z,2.60
2017-09-12T21:58:04.754Z,2.10
2017-09-12T22:00:34.882Z,1.53
2017-09-12T22:03:13.592Z,2.77
2017-09-12T22:05:42.332Z,1.20
2017-09-12T22:08:10.530Z,2.90
2017-09-12T22:10:40.299Z,2.30
2017-09-12T22:13:09.192Z,1.73
2017-09-12T22:15:38.569Z,3.03
2017-09-12T22:18:08.550Z,4.10
2017-09-12T22:20:38.798Z,2.97
2017-09-12T22:23:07.644Z,2.23
2017-09-12T22:25:38.147Z,2.10
2017-09-12T22:28:08.237Z,4.73
2017-09-12T22:30:36.872Z,7.37
2017-09-12T22:33:06.933Z,6.67
2017-09-12T22:35:36.202Z,4.33
2017-09-12T22:38:06.273Z,3.40
2017-09-12T22:40:35.513Z,2.63
2017-09-12T22:43:05.694Z,4.00
2017-09-12T22:45:34.099Z,2.97
2017-09-12T22:48:03.478Z,3.83
2017-09-12T22:50:32.064Z,1.87
2017-09-12T22:53:01.824Z,3.00
2017-09-12T22:55:30.709Z,1.73
2017-09-12T22:58:00.015Z,2.97
2017-09-12T23:00:30.147Z,4.83
2017-09-12T23:03:00.401Z,2.43
2017-09-12T23:05:29.664Z,6.40
2017-09-12T23:07:59.803Z,2.10
2017-09-12T23:10:28.681Z,2.70
2017-09-12T23:12:56.901Z,3.17
2017-09-12T23:15:26.125Z,1.93
2017-09-12T23:17:56.719Z,2.60
2017-09-12T23:20:25.822Z,3.67
2017-09-12T23:22:53.931Z,1.37
2017-09-12T23:25:22.995Z,4.10
2017-09-12T23:27:53.274Z,3.90
2017-09-12T23:30:22.294Z,1.70
2017-09-12T23:32:50.270Z,1.60
2017-09-12T23:35:21.304Z,1.90
2017-09-12T23:38:00.334Z,2.60
2017-09-12T23:40:29.742Z,5.97
2017-09-12T23:42:59.964Z,2.97
2017-09-12T23:45:28.813Z,1.93
2017-09-12T23:47:56.864Z,2.57
2017-09-12T23:50:25.677Z,3.30
2017-09-12T23:52:55.211Z,1.30
2017-09-12T23:55:24.691Z,1.00
2017-09-12T23:57:53.324Z,1.10
